Terminal Aerodrome Forecast
Issued by NWS

Home | Current Version | Previous Version | Text Only | Print | Product List | Glossary Off
Versions: 1 2 3 4 5 6 7 8 9 10 11 12 13 14 15 16

000
FTUS43 KIWX 231700
TAFSBN
TAF
KSBN 231734Z 2318/2418 23009KT P6SM OVC015
     FM232200 23008KT P6SM OVC020
     FM241500 27008KT P6SM BKN025=

USA.gov is the U.S. government's official web portal to all federal, state and local government web resources and services.